• Join FlightAware (Why Join?)
  • Login
  • US Flag 
12:23AM EST


 

Airport Tracker/Info


-or-


 

Live Flight TrackerFlight Track Log ✈ SKW2631 ✈ 17-Apr-2014 ✈ KORD - KCHO

Flight Track Log - Related Links

Times and Time Zones

All times are in EDT time to prevent confusion due to time zone crossing. See the SKW2631 flight status page for this flight to view local times or setup timezone preferences in your user account.

Time Position Orientation Groundspeed Altitude Reporting Facility
EDT Latitude Longitude Course Direction KTS MPH feet Rate Location/Type
04:44PM 41.9333 -87.9167 166° South 169 194 2,000  Level Chicago TRACON
04:45PM 41.8833 -87.9000 166° South 220 253 4,000 2,296 Climbing Chicago TRACON
04:46PM 41.8167 -87.8667 160° South 251 289 6,400 2,652 Climbing Chicago TRACON
04:47PM 41.7328 -87.8086 153° Southeast 275 316 10,100 2,590 Climbing Chicago Center
04:48PM 41.6622 -87.7550 150° Southeast 290 334 12,400 2,032 Climbing Chicago Center
04:49PM 41.5836 -87.6939 150° Southeast 320 368 14,300 1,824 Climbing Chicago Center
04:50PM 41.4944 -87.6250 150° Southeast 341 392 16,200 1,632 Climbing Chicago Center
04:51PM 41.4072 -87.5683 154° Southeast 347 399 17,700 1,452 Climbing Chicago Center
04:52PM 41.3128 -87.5561 174° South 341 392 19,200 1,452 Climbing Chicago Center
04:53PM 41.2144 -87.5364 171° South 351 404 20,700 1,403 Climbing Chicago Center
04:54PM 41.1153 -87.5106 169° South 359 413 22,100 1,306 Climbing Chicago Center
04:55PM 41.0156 -87.4839 169° South 362 417 23,400 1,403 Climbing Chicago Center
04:56PM 40.8942 -87.4508 168° South 367 422 25,000 1,248 Climbing Chicago Center
04:57PM 40.7922 -87.4261 170° South 371 427 26,000 912 Climbing Chicago Center
04:58PM 40.6903 -87.3975 168° South 371 427 26,900 803 Climbing Chicago Center
04:59PM 40.5850 -87.3711 169° South 378 435 27,700 756 Climbing Chicago Center
05:01PM 40.4803 -87.3419 168° South 382 440 28,500 726 Climbing Chicago Center
05:02PM 40.3761 -87.2622 150° Southeast 409 471 29,200 726 Climbing Chicago Center
05:03PM 40.2814 -87.1769 146° Southeast 410 472 30,000 774 Climbing Chicago Center
05:04PM 40.1694 -87.0725 145° Southeast 411 473 30,800 713 Climbing Chicago Center
05:04PM 40.1136 -87.0197 144° Southeast 412 474 31,200 653 Climbing Indianapolis Center
05:05PM 40.0208 -86.9347 145° Southeast 411 473 31,900 677 Climbing Indianapolis Center
05:06PM 39.9286 -86.8539 146° Southeast 407 468 32,600 528 Climbing Indianapolis Center
05:07PM 39.8364 -86.7783 148° Southeast 398 458 33,000 192 Climbing Indianapolis Center
05:08PM 39.7256 -86.6806 146° Southeast 401 461 33,000  Level Indianapolis Center
05:09PM 39.6572 -86.5486 124° Southeast 440 506 33,000  Level Indianapolis Center
05:10PM 39.5956 -86.4072 119° Southeast 455 524 33,000  Level Indianapolis Center
05:12PM 39.5331 -86.2653 120° Southeast 460 529 33,000  Level Indianapolis Center
05:13PM 39.4572 -86.0919 119° Southeast 463 533 33,000  Level Indianapolis Center
05:14PM 39.3925 -85.9464 120° Southeast 465 535 33,000  Level Indianapolis Center
05:15PM 39.3278 -85.8017 120° Southeast 466 536 33,000  Level Indianapolis Center
05:16PM 39.2703 -85.6508 116° Southeast 467 537 33,000  Level Indianapolis Center
05:17PM 39.2367 -85.4831 104° East 482 555 33,000  Level Indianapolis Center
05:18PM 39.1922 -85.2858 106° East 482 555 33,000  Level Indianapolis Center
05:19PM 39.1547 -85.1200 106° East 482 555 33,000  Level Indianapolis Center
05:20PM 39.1183 -84.9558 106° East 482 555 33,000  Level Indianapolis Center
05:21PM 39.0786 -84.7811 106° East 481 554 33,000  Level Indianapolis Center
05:22PM 39.0406 -84.6169 107° East 482 555 33,000  Level Indianapolis Center
05:23PM 39.0033 -84.4531 106° East 481 554 33,000  Level Indianapolis Center
05:24PM 38.9650 -84.2903 107° East 481 554 33,000  Level Indianapolis Center
05:25PM 38.9197 -84.0953 107° East 481 554 33,000  Level Indianapolis Center
05:26PM 38.8817 -83.9314 107° East 481 554 33,000  Level Indianapolis Center
05:27PM 38.8431 -83.7694 107° East 481 554 33,000  Level Indianapolis Center
05:28PM 38.8047 -83.6075 107° East 480 552 33,000  Level Indianapolis Center
05:29PM 38.7667 -83.4469 107° East 480 552 33,000  Level Indianapolis Center
05:30PM 38.7194 -83.2531 107° East 479 551 33,000  Level Indianapolis Center
05:31PM 38.6842 -83.1089 107° East 479 551 33,000  Level Indianapolis Center
05:32PM 38.6414 -82.9389 108° East 478 550 33,000  Level Indianapolis Center
05:33PM 38.5747 -82.7958 121° Southeast 470 541 33,000 -97 Level Indianapolis Center
05:39PM 38.2944 -81.8272 99° East 472 543 32,300 -241 Descending Indianapolis Center
05:41PM 38.2750 -81.6597 98° East 478 550 31,300 -968 Descending Indianapolis Center
05:42PM 38.3061 -81.7452 100° East  Level FlightAware Approximate
05:42PM 38.2556 -81.4914 98° East 480 552 30,300  Level Indianapolis Center
05:43PM 38.2869 -81.6076 100° East  Level FlightAware Approximate
05:43PM 38.2364 -81.3242 98° East 480 552 29,300  Level Indianapolis Center
05:44PM 38.2674 -81.4700 100° East  Level FlightAware Approximate
05:44PM 38.2122 -81.1250 99° East 480 552 28,100  Level Indianapolis Center
05:45PM 38.2501 -81.3317 99° East  Level FlightAware Approximate
05:45PM 38.1928 -80.9597 98° East 480 552 27,100  Level Indianapolis Center
05:46PM 38.1742 -80.7964 98° East 477 549 26,100 -984 Descending Indianapolis Center
05:47PM 38.1539 -80.6342 99° East 470 541 25,100 -968 Descending Indianapolis Center
05:48PM 38.1344 -80.4717 99° East 470 541 24,100 -968 Descending Indianapolis Center
05:49PM 38.1131 -80.3131 100° East 463 533 23,100 -1,403 Descending Indianapolis Center
05:50PM 38.0803 -80.1233 102° East 462 532 21,200 -1,548 Descending Indianapolis Center
05:51PM 38.0556 -79.9864 103° East 461 531 19,900 -1,440 Descending Indianapolis Center
05:52PM 38.0250 -79.8047 102° East 455 524 18,200 -1,296 Descending Indianapolis Center
05:53PM 37.9986 -79.6556 103° East 447 514 17,200 -1,210 Descending Indianapolis Center
05:54PM 37.9736 -79.5125 102° East 432 497 15,700 -1,475 Descending Indianapolis Center
05:55PM 37.9489 -79.3761 103° East 419 482 14,200 -1,361 Descending Washington Center
05:56PM 37.9239 -79.2378 103° East 407 468 13,000 -1,289 Descending Washington Center
05:57PM 37.9428 -79.0967 80° East 370 426 11,600 -1,377 Descending Washington Center
05:58PM 37.9772 -78.9847 69° East 352 405 10,200 -1,412 Descending Washington Center
05:59PM 38.0092 -78.8836 68° East 328 377 8,800 -1,412 Descending Washington Center
06:00PM 38.0389 -78.7900 68° East 302 348 7,400 -1,339 Descending Washington Center
06:01PM 38.0639 -78.7092 69° East 277 319 6,100 -1,271 Descending Washington Center
06:02PM 38.0933 -78.6258 66° East 263 303 4,900 -908 Descending Washington Center
06:03PM 38.1486 -78.5753 36° Northeast 225 259 4,300 -843 Descending Washington Center
06:04PM 38.1933 -78.5375 34° Northeast 198 228 3,200 -787 Descending Washington Center
06:05PM 38.2114 -78.4881 65° Northeast 176 203 2,700 -700 Descending Washington Center
06:06PM 38.1939 -78.4344 113° Southeast 144 166 1,800 -931 Descending Washington Center